Station: Mackay  

  Atmospheric Gas Attenuation - ITU Rec 676-11   ----------------- dB/100km -----------------
Date Time Temp RH % AH g/m3 Dew Point Wind Direction Speed kph Gust kph Barometer mB Rainfall Since 9am 24GHz 47GHz 76GHz 122GHz 134GHz 241GHz
01/09 15:20 23 73 15 17.9 15 24 1022.9 0 32.6 34.0 61.3 161.8 171.7 595.8
01/09 15:10 22.7 70 14.14 16.9 17 28 1023 0 30.8 32.6 57.8 152.5 160.2 555.5
01/09 15:00 23.1 70 14.47 17.3 17 26 1023 0 31.5 33.0 59.0 155.5 164.0 568.8
01/09 14:50 23.1 68 14.06 16.9 15 26 1023 0 30.6 32.3 57.2 150.8 158.2 548.7
01/09 14:40 23.2 70 14.55 17.4 15 26 1023.2 0 31.6 33.1 59.2 156.3 164.9 572.1
01/09 14:30 23.2 70 14.55 17.4 15 26 1023.2 0 31.6 33.1 59.2 156.3 164.9 572.1
01/09 14:20 23.3 70 14.64 17.5 15 24 1023.4 0 31.8 33.3 59.6 157.1 166.0 575.9
01/09 14:10 23.4 69 14.51 17.4 17 28 1023.5 0 31.5 33.0 58.9 155.4 164.0 568.8
01/09 14:00 23.2 70 14.55 17.4 17 24 1023.6 0 31.6 33.2 59.3 156.3 165.0 572.2
01/09 13:50 23.1 70 14.47 17.3 17 28 1023.8 0 31.5 33.1 59.0 155.6 164.1 569.1
01/09 13:40 23.2 69 14.34 17.2 17 30 1023.9 0 31.2 32.8 58.4 153.9 162.1 562.0
01/09 13:30 23.5 71 15.01 17.9 17 28 1024 0 32.6 33.9 61.0 161.1 170.9 592.9
01/09 13:20 23.5 68 14.38 17.3 17 32 1024.2 0 31.2 32.8 58.3 153.8 162.0 562.0
01/09 13:10 23.3 70 14.64 17.5 19 30 1024.3 0 31.8 33.3 59.6 157.2 166.1 576.2
01/09 13:00 23.1 68 14.06 16.9 17 28 1024.4 0 30.6 32.4 57.3 151.0 158.4 549.3
01/09 12:50 23.4 70 14.72 17.6 17 28 1024.5 0 32.0 33.4 59.9 158.0 167.1 579.5
01/09 12:40 23.7 68 14.54 17.4 17 30 1024.6 0 31.6 33.0 58.9 155.3 163.9 568.5
01/09 12:30 23 70 14.39 17.2 19 28 1024.8 0 31.3 33.0 58.8 155.0 163.3 566.3
01/09 12:20 23.5 69 14.59 17.5 17 30 1025 0 31.7 33.2 59.3 156.4 165.1 572.6
01/09 12:10 23.5 68 14.38 17.3 17 30 1025.1 0 31.2 32.8 58.4 154.0 162.1 562.3
01/09 12:00 23.7 67 14.33 17.2 17 30 1025.2 0 31.1 32.6 58.0 153.0 161.0 558.5
01/09 11:50 23.4 67 14.09 16.9 19 30 1025.3 0 30.6 32.4 57.2 150.9 158.3 549.0
01/09 11:40 23.7 68 14.54 17.4 17 30 1025.4 0 31.6 33.0 58.9 155.4 164.0 568.8
01/09 11:30 23 68 13.98 16.8 19 30 1025.5 0 30.4 32.3 57.1 150.4 157.6 546.5
01/09 11:20 23.5 68 14.38 17.3 17 26 1025.6 0 31.2 32.8 58.4 154.0 162.2 562.5
01/09 11:10 23.4 68 14.3 17.2 19 30 1025.7 0 31.1 32.7 58.1 153.3 161.3 559.4
01/09 11:00 23.8 64 13.77 16.6 19 35 1025.9 0 29.9 31.7 55.6 146.6 153.2 531.0
01/09 10:50 23.7 66 14.12 17 20 32 1026 0 30.7 32.3 57.2 150.7 158.2 548.6
01/09 10:40 23.3 69 14.43 17.3 20 30 1026.1 0 31.4 33.0 58.8 155.1 163.4 566.6
01/09 10:30 23.3 67 14.01 16.8 20 35 1026.2 0 30.5 32.3 57.0 150.3 157.5 546.2
01/09 10:20 23.3 69 14.43 17.3 20 35 1026.4 0 31.4 33.0 58.8 155.1 163.4 566.8
01/09 10:10 22.8 70 14.22 17 22 33 1026.4 0 31.0 32.8 58.3 153.7 161.5 560.1
01/09 10:00 22.8 69 14.02 16.8 22 41 1026.4 0 30.5 32.5 57.4 151.4 158.7 550.3
01/09 09:50 22.5 72 14.38 17.2 22 35 1026.5 0 31.3 33.2 59.2 156.1 164.4 570.2
01/09 09:40 22.2 75 14.72 17.6 22 39 1026.5 0 32.1 34.0 60.9 160.7 170.0 589.5
01/09 09:30 21.5 76 14.33 17.1 20 33 1026.5 0 31.3 33.5 59.8 157.6 165.9 575.1
01/09 09:20 22.5 72 14.38 17.2 20 33 1026.4 0 31.3 33.2 59.2 156.1 164.4 570.2
01/09 09:10 22.4 72 14.3 17.1 19 28 1026.4 0 31.2 33.1 58.9 155.4 163.5 566.9
01/09 09:00 22.1 73 14.25 17 19 28 1026.4 0 31.1 33.2 58.9 155.4 163.4 566.7
01/09 08:50 22 72 13.97 16.7 17 28 1026.2 0 30.5 32.7 57.8 152.4 159.6 553.4
01/09 08:40 21.5 73 13.76 16.5 17 28 1026.1 0 30.1 32.5 57.2 150.9 157.7 546.6
01/09 08:30 21.5 74 13.95 16.7 19 32 1026 0 30.5 32.9 58.1 153.1 160.4 555.9
01/09 08:20 21.3 72 13.42 16 19 30 1025.9 0 29.4 32.0 55.9 147.4 153.3 531.1
01/09 08:10 22 60 11.64 13.9 17 28 1025.8 0 25.6 28.8 48.1 126.4 127.8 442.1
01/09 08:00 21.9 62 11.96 14.3 19 37 1025.7 0 26.2 29.3 49.4 130.0 132.1 457.4
01/09 07:50 21.8 64 12.28 14.7 17 30 1025.5 0 26.9 29.9 50.8 133.7 136.6 473.0
01/09 07:40 21.6 65 12.33 14.7 15 28 1025.4 0 27.0 30.0 51.1 134.5 137.6 476.5
01/09 07:30 21.4 65 12.19 14.6 17 26 1025.3 0 26.8 29.9 50.6 133.3 136.1 471.1
01/09 07:20 21.2 64 11.86 14.1 17 26 1025.1 0 26.1 29.4 49.4 130.0 131.9 456.6
01/09 07:10 20.9 65 11.84 14.1 17 28 1025.1 0 26.1 29.4 49.5 130.3 132.2 457.5
01/09 07:00 20.7 66 11.88 14.1 17 28 1024.9 0 26.2 29.6 49.8 131.1 133.0 460.4
01/09 06:50 20.5 68 12.1 14.4 15 28 1024.8 0 26.6 30.0 50.8 133.8 136.4 472.0
01/09 06:40 20.3 69 12.13 14.4 17 30 1024.7 0 26.7 30.1 51.1 134.5 137.1 474.6
01/09 06:30 20.1 69 11.99 14.2 17 32 1024.6 0 26.4 29.9 50.6 133.2 135.6 469.1
01/09 06:20 20 70 12.1 14.4 17 28 1024.5 0 26.7 30.2 51.1 134.6 137.2 475.0
01/09 06:10 20.2 67 11.71 13.9 20 32 1024.4 0 25.8 29.4 49.4 130.0 131.6 455.2
01/09 06:00 20.2 64 11.19 13.2 19 30 1024.4 0 24.7 28.6 47.3 124.3 124.6 430.8
01/09 05:50 20 62 10.71 12.5 19 33 1024.3 0 23.7 27.8 45.4 119.4 118.5 409.6
01/09 05:40 20.1 61 10.6 12.3 19 30 1024.2 0 23.5 27.6 44.9 118.1 116.9 404.0
01/09 05:30 20.1 62 10.78 12.6 19 35 1024.1 0 23.9 27.9 45.6 120.0 119.3 412.2
01/09 05:20 20.3 60 10.55 12.3 19 32 1024 0 23.4 27.5 44.6 117.2 116.0 400.7
01/09 05:10 20 65 11.23 13.2 17 26 1023.9 0 24.8 28.7 47.5 125.0 125.4 433.6
01/09 05:00 20.1 63 10.95 12.8 17 28 1023.9 0 24.2 28.2 46.3 121.8 121.5 420.0
01/09 04:50 20.2 64 11.19 13.2 19 30 1023.9 0 24.7 28.6 47.2 124.2 124.5 430.6
01/09 04:40 20.1 65 11.3 13.3 19 33 1023.8 0 25.0 28.8 47.7 125.6 126.1 436.2
01/09 04:30 20.2 65 11.36 13.4 20 33 1023.7 0 25.1 28.8 47.9 126.0 126.8 438.5
01/09 04:20 20.2 63 11.01 12.9 20 32 1023.7 0 24.4 28.2 46.5 122.3 122.1 422.2
01/09 04:10 20.2 65 11.36 13.4 20 33 1023.8 0 25.1 28.8 47.9 126.1 126.8 438.5
01/09 04:00 20.1 67 11.65 13.8 20 37 1023.8 0 25.7 29.3 49.2 129.4 130.9 452.7
01/09 03:50 20.1 67 11.65 13.8 20 33 1023.9 0 25.7 29.3 49.2 129.4 130.9 452.7
01/09 03:40 20.2 69 12.06 14.3 22 33 1024 0 26.6 30.0 50.8 133.8 136.3 471.7
01/09 03:30 20.3 67 11.78 14 20 32 1024.2 0 26.0 29.5 49.6 130.5 132.3 457.8
01/09 03:20 20.2 70 12.24 14.6 22 37 1024.2 0 27.0 30.3 51.6 135.8 138.8 480.4
01/09 03:10 20.2 69 12.06 14.3 22 35 1024.2 0 26.6 30.0 50.8 133.8 136.3 471.7
01/09 03:00 20.2 69 12.06 14.3 20 32 1024.3 0 26.6 30.0 50.8 133.8 136.3 471.8
01/09 02:50 20.2 67 11.71 13.9 20 33 1024.5 0 25.8 29.4 49.4 130.0 131.6 455.2
01/09 02:40 20.2 67 11.71 13.9 19 33 1024.5 0 25.8 29.4 49.4 130.0 131.6 455.2
01/09 02:30 20.3 64 11.25 13.3 22 41 1024.5 0 24.9 28.6 47.4 124.8 125.2 433.0
01/09 02:20 20.4 65 11.5 13.6 22 35 1024.6 0 25.4 29.0 48.4 127.4 128.4 444.2
01/09 02:10 20.4 66 11.67 13.8 20 33 1024.7 0 25.7 29.3 49.1 129.2 130.7 452.2
01/09 02:00 20.5 65 11.56 13.7 22 35 1024.7 0 25.5 29.1 48.6 127.9 129.1 446.5
01/09 01:50 20.4 66 11.67 13.8 22 35 1024.8 0 25.7 29.3 49.1 129.2 130.7 452.2
01/09 01:40 20.4 65 11.5 13.6 20 35 1024.9 0 25.4 29.0 48.4 127.4 128.4 444.3
01/09 01:30 20.4 70 12.38 14.7 20 33 1025 0 27.2 30.5 52.1 137.1 140.4 486.1
01/09 01:20 20.4 69 12.21 14.5 22 35 1025 0 26.9 30.2 51.4 135.2 138.1 478.0
01/09 01:10 20.3 71 12.49 14.9 20 33 1025.2 0 27.5 30.7 52.6 138.6 142.1 492.1
01/09 01:00 20.2 72 12.59 15 20 33 1025.3 0 27.7 30.9 53.1 139.9 143.7 497.7
01/09 00:50 20.3 71 12.49 14.9 20 32 1025.3 0 27.5 30.7 52.6 138.6 142.2 492.2
01/09 00:40 20.4 71 12.56 15 20 32 1025.4 0 27.6 30.8 52.9 139.2 143.0 495.0
01/09 00:30 20.4 69 12.21 14.5 22 39 1025.4 0 26.9 30.2 51.4 135.3 138.1 478.1
01/09 00:20 20.4 71 12.56 15 22 35 1025.4 0 27.6 30.8 52.9 139.2 143.0 495.0
01/09 00:10 20.5 71 12.63 15.1 20 41 1025.6 0 27.8 30.9 53.1 139.8 143.8 497.8
01/09 00:00 20.6 70 12.53 14.9 20 35 1025.8 0 27.5 30.7 52.6 138.6 142.2 492.4
31/08 23:50 20.5 71 12.63 15.1 19 32 1025.9 0 27.8 30.9 53.1 139.9 143.8 497.9
31/08 23:40 20.6 70 12.53 14.9 22 33 1025.9 0 27.5 30.7 52.6 138.6 142.2 492.4
31/08 23:30 20.7 69 12.42 14.8 22 39 1025.9 0 27.3 30.5 52.1 137.2 140.5 486.5
31/08 23:20 20.7 69 12.42 14.8 20 33 1026 0 27.3 30.5 52.1 137.2 140.5 486.6
31/08 23:10 20.7 69 12.42 14.8 20 30 1025.9 0 27.3 30.5 52.1 137.2 140.5 486.5
31/08 23:00 20.6 71 12.71 15.2 20 32 1025.9 0 27.9 31.0 53.4 140.6 144.7 501.2
31/08 22:50 20.6 69 12.35 14.7 20 32 1025.9 0 27.2 30.4 51.9 136.6 139.7 483.8

Last Refresh: 01-Sep-2026 15:00:21

Bureau of Meteorology